createdAt,value
2023-02-12T00:00:51.989Z,6.10
2023-02-12T00:03:19.781Z,6.40
2023-02-12T00:05:47.440Z,8.70
2023-02-12T00:08:16.316Z,7.20
2023-02-12T00:10:44.978Z,7.50
2023-02-12T00:13:13.440Z,7.17
2023-02-12T00:15:43.855Z,6.03
2023-02-12T00:18:12.049Z,5.90
2023-02-12T00:20:40.105Z,6.07
2023-02-12T00:23:08.272Z,6.30
2023-02-12T00:25:35.930Z,6.50
2023-02-12T00:28:03.786Z,6.40
2023-02-12T00:30:31.567Z,6.50
2023-02-12T00:33:01.634Z,6.53
2023-02-12T00:35:29.226Z,6.43
2023-02-12T00:37:56.979Z,7.40
2023-02-12T00:40:24.696Z,6.37
2023-02-12T00:42:52.281Z,5.67
2023-02-12T00:45:20.190Z,5.43
2023-02-12T00:47:47.788Z,4.70
2023-02-12T00:50:17.927Z,4.87
2023-02-12T00:52:45.519Z,4.50
2023-02-12T00:55:13.122Z,6.50
2023-02-12T00:57:40.797Z,6.03
2023-02-12T01:00:09.685Z,5.97
2023-02-12T01:02:37.309Z,6.10
2023-02-12T01:05:07.090Z,5.60
2023-02-12T01:07:36.074Z,5.60
2023-02-12T01:10:03.675Z,6.30
2023-02-12T01:12:31.239Z,6.13
2023-02-12T01:14:58.882Z,5.93
2023-02-12T01:17:26.903Z,5.23
2023-02-12T01:19:58.109Z,5.27
2023-02-12T01:22:26.005Z,5.90
2023-02-12T01:24:54.964Z,5.27
2023-02-12T01:27:22.701Z,6.20
2023-02-12T01:29:50.434Z,6.10
2023-02-12T01:32:18.051Z,6.23
2023-02-12T01:34:45.671Z,5.87
2023-02-12T01:37:13.325Z,6.37
2023-02-12T01:39:40.911Z,6.37
2023-02-12T01:42:13.788Z,7.27
2023-02-12T01:44:46.122Z,7.07
2023-02-12T01:47:18.432Z,6.47
2023-02-12T01:49:48.969Z,6.70
2023-02-12T01:52:20.219Z,5.93
2023-02-12T01:54:51.071Z,6.10
2023-02-12T01:57:20.860Z,6.17
2023-02-12T01:59:51.732Z,6.67
2023-02-12T02:02:19.550Z,6.57
2023-02-12T02:04:53.297Z,5.67
2023-02-12T02:07:20.977Z,5.90
2023-02-12T02:09:49.308Z,5.67
2023-02-12T02:12:34.538Z,5.73
2023-02-12T02:15:05.388Z,5.10
2023-02-12T02:17:45.824Z,5.80
2023-02-12T02:21:05.959Z,5.40
2023-02-12T02:23:54.417Z,4.80
2023-02-12T02:26:41.753Z,4.80
2023-02-12T02:29:28.608Z,4.93
2023-02-12T02:32:03.880Z,5.30
2023-02-12T02:34:41.903Z,5.13
2023-02-12T02:37:16.951Z,5.77
2023-02-12T02:39:50.456Z,5.00
2023-02-12T02:42:25.708Z,5.07
2023-02-12T02:44:56.049Z,5.00
2023-02-12T02:47:32.359Z,5.33
2023-02-12T02:50:05.300Z,6.13
2023-02-12T02:52:38.769Z,5.73
2023-02-12T02:55:08.941Z,4.70
2023-02-12T02:57:42.493Z,5.13
2023-02-12T03:00:16.641Z,5.37
2023-02-12T03:02:51.780Z,4.67
2023-02-12T03:05:24.916Z,4.47
2023-02-12T03:07:59.131Z,4.97
2023-02-12T03:10:30.201Z,4.57
2023-02-12T03:13:03.861Z,4.67
2023-02-12T03:15:37.904Z,4.77
2023-02-12T03:18:11.470Z,4.60
2023-02-12T03:20:45.274Z,5.00
2023-02-12T03:23:18.090Z,4.33
2023-02-12T03:25:54.237Z,4.40
2023-02-12T03:28:27.443Z,4.50
2023-02-12T03:31:03.875Z,4.37
2023-02-12T03:33:42.606Z,4.40
2023-02-12T03:36:20.993Z,4.83
2023-02-12T03:38:52.707Z,4.03
2023-02-12T03:41:26.284Z,3.97
2023-02-12T03:43:56.754Z,4.17
2023-02-12T03:46:28.878Z,4.00
2023-02-12T03:49:02.390Z,5.10
2023-02-12T03:51:35.927Z,4.30
2023-02-12T03:54:05.130Z,4.00
2023-02-12T03:56:38.229Z,4.50
2023-02-12T03:59:06.495Z,4.60
2023-02-12T04:01:36.190Z,4.30
2023-02-12T04:04:07.386Z,4.23
2023-02-12T04:06:35.138Z,4.33
2023-02-12T04:09:06.765Z,3.97
2023-02-12T04:11:46.127Z,3.87
2023-02-12T04:14:21.379Z,3.57
2023-02-12T04:16:55.233Z,4.00
2023-02-12T04:19:34.195Z,3.63
2023-02-12T04:22:15.432Z,3.43
2023-02-12T04:24:51.415Z,3.40
2023-02-12T04:27:26.510Z,3.43
2023-02-12T04:29:58.017Z,5.97
2023-02-12T04:32:33.629Z,4.00
2023-02-12T04:35:06.507Z,5.00
2023-02-12T04:37:40.335Z,4.33
2023-02-12T04:40:13.621Z,4.70
2023-02-12T04:42:44.742Z,4.23
2023-02-12T04:45:13.476Z,3.60
2023-02-12T04:47:41.214Z,3.70
2023-02-12T04:50:11.207Z,4.13
2023-02-12T04:52:38.832Z,4.33
2023-02-12T04:55:06.945Z,4.47
2023-02-12T04:57:34.611Z,4.13
2023-02-12T05:00:02.332Z,5.07
2023-02-12T05:02:29.953Z,5.83
2023-02-12T05:04:57.708Z,6.20
2023-02-12T05:07:26.665Z,5.10
2023-02-12T05:09:54.263Z,5.30
2023-02-12T05:12:21.916Z,5.20
2023-02-12T05:14:49.514Z,5.83
2023-02-12T05:17:17.138Z,6.47
2023-02-12T05:19:44.741Z,5.90
2023-02-12T05:22:12.383Z,5.70
2023-02-12T05:24:41.616Z,4.93
2023-02-12T05:27:10.030Z,5.57
2023-02-12T05:29:37.962Z,5.73
2023-02-12T05:32:06.946Z,5.00
2023-02-12T05:34:35.359Z,5.13
2023-02-12T05:37:03.118Z,4.17
2023-02-12T05:39:30.707Z,5.67
2023-02-12T05:41:59.643Z,4.53
2023-02-12T05:44:27.394Z,5.00
2023-02-12T05:46:54.978Z,4.83
2023-02-12T05:49:22.738Z,5.10
2023-02-12T05:51:50.503Z,5.97
2023-02-12T05:54:18.104Z,7.07
2023-02-12T05:56:47.778Z,6.73
2023-02-12T05:59:19.479Z,5.93
2023-02-12T06:01:48.307Z,5.67
2023-02-12T06:04:17.731Z,5.67
2023-02-12T06:06:45.518Z,5.50
2023-02-12T06:09:14.769Z,6.13
2023-02-12T06:11:43.178Z,5.03
2023-02-12T06:14:13.958Z,4.67
2023-02-12T06:16:45.826Z,5.23
2023-02-12T06:19:13.683Z,5.20
2023-02-12T06:21:41.379Z,5.33
2023-02-12T06:24:09.396Z,5.13
2023-02-12T06:26:36.978Z,6.00
2023-02-12T06:29:04.764Z,5.37
2023-02-12T06:31:34.545Z,6.20
2023-02-12T06:34:06.778Z,6.00
2023-02-12T06:36:34.988Z,6.40
2023-02-12T06:39:03.360Z,5.43
2023-02-12T06:41:31.349Z,5.57
2023-02-12T06:43:59.245Z,5.67
2023-02-12T06:46:27.639Z,5.77
2023-02-12T06:48:56.099Z,6.40
2023-02-12T06:51:25.975Z,6.63
2023-02-12T06:53:55.444Z,6.10
2023-02-12T06:56:25.057Z,5.90
2023-02-12T06:58:55.004Z,6.87
2023-02-12T07:01:24.584Z,6.50
2023-02-12T07:03:54.536Z,7.30
2023-02-12T07:06:23.303Z,7.83
2023-02-12T07:08:52.663Z,7.60
2023-02-12T07:11:24.422Z,7.80
2023-02-12T07:13:51.984Z,9.17
2023-02-12T07:16:20.081Z,8.13
2023-02-12T07:18:47.962Z,8.43
2023-02-12T07:21:17.720Z,8.23
2023-02-12T07:23:51.059Z,8.83
2023-02-12T07:26:21.927Z,7.47
2023-02-12T07:28:50.267Z,8.23
2023-02-12T07:31:19.900Z,9.80
2023-02-12T07:33:48.477Z,7.00
2023-02-12T07:36:17.872Z,7.53
2023-02-12T07:38:45.765Z,6.03
2023-02-12T07:41:16.093Z,6.50
2023-02-12T07:43:46.808Z,5.70
2023-02-12T07:46:17.578Z,6.07
2023-02-12T07:48:45.542Z,6.37
2023-02-12T07:51:14.911Z,8.77
2023-02-12T07:53:42.910Z,6.73
2023-02-12T07:56:11.886Z,7.00
2023-02-12T07:58:40.780Z,7.90
2023-02-12T08:01:18.847Z,6.40
2023-02-12T08:03:47.694Z,6.43
2023-02-12T08:06:18.993Z,10.47
2023-02-12T08:08:46.998Z,6.27
2023-02-12T08:11:16.627Z,7.73
2023-02-12T08:13:44.274Z,6.40
2023-02-12T08:16:13.908Z,7.73
2023-02-12T08:18:43.485Z,7.33
2023-02-12T08:21:13.123Z,7.97
2023-02-12T08:23:41.611Z,6.27
2023-02-12T08:26:11.993Z,7.63
2023-02-12T08:28:42.079Z,6.83
2023-02-12T08:31:11.763Z,7.37
2023-02-12T08:33:39.387Z,8.50
2023-02-12T08:36:11.399Z,6.60
2023-02-12T08:38:40.272Z,5.17
2023-02-12T08:41:09.912Z,6.23
2023-02-12T08:43:38.761Z,6.43
2023-02-12T08:46:08.118Z,5.07
2023-02-12T08:48:36.106Z,5.07
2023-02-12T08:51:10.702Z,5.17
2023-02-12T08:53:39.459Z,4.97
2023-02-12T08:56:08.834Z,4.50
2023-02-12T08:58:37.708Z,4.60
2023-02-12T09:01:09.955Z,4.57
2023-02-12T09:03:38.043Z,5.07
2023-02-12T09:06:08.086Z,4.03
2023-02-12T09:08:36.471Z,4.23
2023-02-12T09:11:06.966Z,4.60
2023-02-12T09:13:34.990Z,3.47
2023-02-12T09:16:04.206Z,3.90
2023-02-12T09:18:32.217Z,6.37
2023-02-12T09:21:02.784Z,5.23
2023-02-12T09:23:32.162Z,4.80
2023-02-12T09:25:59.917Z,4.30
2023-02-12T09:28:27.678Z,4.03
2023-02-12T09:30:55.450Z,4.33
2023-02-12T09:33:24.421Z,4.10
2023-02-12T09:35:52.084Z,3.60
2023-02-12T09:38:19.800Z,4.00
2023-02-12T09:41:02.412Z,3.40
2023-02-12T09:43:35.242Z,3.33
2023-02-12T09:46:12.082Z,3.33
2023-02-12T09:48:54.797Z,3.93
2023-02-12T09:51:23.369Z,3.87
2023-02-12T09:54:01.145Z,4.17
2023-02-12T09:56:31.583Z,2.93
2023-02-12T09:59:02.987Z,3.20
2023-02-12T10:01:30.903Z,3.03
2023-02-12T10:03:59.362Z,3.80
2023-02-12T10:06:30.899Z,3.10
2023-02-12T10:09:17.861Z,3.63
2023-02-12T10:12:05.260Z,4.17
2023-02-12T10:14:50.615Z,3.30
2023-02-12T10:17:26.115Z,3.30
2023-02-12T10:20:17.538Z,3.23
2023-02-12T10:22:57.559Z,3.70
2023-02-12T10:25:31.216Z,4.10
2023-02-12T10:28:03.632Z,3.07
2023-02-12T10:30:41.889Z,3.43
2023-02-12T10:33:16.289Z,3.53
2023-02-12T10:35:48.108Z,3.30
2023-02-12T10:38:20.210Z,3.13
2023-02-12T10:40:50.314Z,2.80
2023-02-12T10:43:19.289Z,2.93
2023-02-12T10:45:47.136Z,3.20
2023-02-12T10:48:20.798Z,2.90
2023-02-12T10:51:21.692Z,2.70
2023-02-12T10:53:49.455Z,3.20
2023-02-12T10:56:19.984Z,2.87
2023-02-12T10:58:55.685Z,2.87
2023-02-12T11:01:27.538Z,3.17
2023-02-12T11:03:56.058Z,2.53
2023-02-12T11:06:25.835Z,2.67
2023-02-12T11:08:54.315Z,4.27
2023-02-12T11:11:26.198Z,3.53
2023-02-12T11:14:01.766Z,2.83
2023-02-12T11:16:31.962Z,2.73
2023-02-12T11:19:05.657Z,2.93
2023-02-12T11:21:34.117Z,2.23
2023-02-12T11:24:24.045Z,2.60
2023-02-12T11:26:51.711Z,4.03
2023-02-12T11:29:24.481Z,2.30
2023-02-12T11:32:03.521Z,2.97
2023-02-12T11:34:31.360Z,2.40
2023-02-12T11:36:59.478Z,2.10
2023-02-12T11:39:30.046Z,2.33
2023-02-12T11:41:59.505Z,2.80
2023-02-12T11:44:31.253Z,2.30
2023-02-12T11:47:02.212Z,2.30
2023-02-12T11:49:33.498Z,2.20
2023-02-12T11:52:03.597Z,2.93
2023-02-12T11:54:42.120Z,2.73
2023-02-12T11:57:44.797Z,2.50
2023-02-12T12:00:18.414Z,3.43
2023-02-12T12:02:58.985Z,2.87
2023-02-12T12:05:32.725Z,3.30
2023-02-12T12:08:06.033Z,2.80
2023-02-12T12:10:39.356Z,3.30
2023-02-12T12:13:15.742Z,3.07
2023-02-12T12:16:04.905Z,2.77
2023-02-12T12:18:56.178Z,2.53
2023-02-12T12:21:30.425Z,2.60
2023-02-12T12:24:01.964Z,2.30
2023-02-12T12:26:34.468Z,2.57
2023-02-12T12:29:11.575Z,2.83
2023-02-12T12:31:41.599Z,2.50
2023-02-12T12:34:14.533Z,2.47
2023-02-12T12:37:02.533Z,2.47
2023-02-12T12:39:37.112Z,2.40
2023-02-12T12:42:33.422Z,2.50
2023-02-12T12:45:20.787Z,2.50
2023-02-12T12:48:06.318Z,2.93
2023-02-12T12:50:54.112Z,2.40
2023-02-12T12:53:32.899Z,2.93
2023-02-12T12:56:20.174Z,2.97
2023-02-12T12:59:00.075Z,4.03
2023-02-12T13:02:00.392Z,3.00
2023-02-12T13:04:52.846Z,3.40
2023-02-12T13:07:34.022Z,2.90
2023-02-12T13:10:16.355Z,2.67
2023-02-12T13:12:56.659Z,2.90
2023-02-12T13:15:34.550Z,3.43
2023-02-12T13:18:15.128Z,2.77
2023-02-12T13:20:50.294Z,2.50
2023-02-12T13:23:28.765Z,2.80
2023-02-12T13:26:04.541Z,2.77
2023-02-12T13:28:37.772Z,2.70
2023-02-12T13:31:30.093Z,2.60
2023-02-12T13:34:00.923Z,2.80
2023-02-12T13:36:28.697Z,2.40
2023-02-12T13:39:01.860Z,2.50
2023-02-12T13:41:30.284Z,3.03
2023-02-12T13:44:07.801Z,3.17
2023-02-12T13:46:47.563Z,2.67
2023-02-12T13:49:27.212Z,3.20
2023-02-12T13:52:01.028Z,3.67
2023-02-12T13:54:48.654Z,3.63
2023-02-12T13:57:18.624Z,3.43
2023-02-12T13:59:49.002Z,3.23
2023-02-12T14:02:29.550Z,3.33
2023-02-12T14:05:00.632Z,5.40
2023-02-12T14:07:43.302Z,3.70
2023-02-12T14:10:22.809Z,3.30
2023-02-12T14:12:51.823Z,3.27
2023-02-12T14:15:32.702Z,2.77
2023-02-12T14:18:22.590Z,4.00
2023-02-12T14:21:42.281Z,3.27
2023-02-12T14:24:54.784Z,3.23
2023-02-12T14:27:35.859Z,3.57
2023-02-12T14:30:20.626Z,3.67
2023-02-12T14:32:59.291Z,3.93
2023-02-12T14:35:34.543Z,3.93
2023-02-12T14:38:05.124Z,4.63
2023-02-12T14:40:44.365Z,4.67
2023-02-12T14:43:31.240Z,4.77
2023-02-12T14:46:00.713Z,5.53
2023-02-12T14:48:48.654Z,5.30
2023-02-12T14:51:21.233Z,4.93
2023-02-12T14:53:51.984Z,5.00
2023-02-12T14:56:22.405Z,4.73
2023-02-12T14:58:51.553Z,4.73
2023-02-12T15:01:27.302Z,4.43
2023-02-12T15:03:56.353Z,4.47
2023-02-12T15:06:36.071Z,4.47
2023-02-12T15:09:10.838Z,5.03
2023-02-12T15:11:44.294Z,4.20
2023-02-12T15:14:17.641Z,4.53
2023-02-12T15:16:55.028Z,4.20
2023-02-12T15:19:38.673Z,4.63
2023-02-12T15:22:19.445Z,6.07
2023-02-12T15:24:48.591Z,5.40
2023-02-12T15:27:17.123Z,4.20
2023-02-12T15:29:48.391Z,5.33
2023-02-12T15:32:22.997Z,4.47
2023-02-12T15:34:52.309Z,4.30
2023-02-12T15:37:23.486Z,4.40
2023-02-12T15:39:55.020Z,5.07
2023-02-12T15:42:28.371Z,5.27
2023-02-12T15:45:07.000Z,4.77
2023-02-12T15:47:34.740Z,5.27
2023-02-12T15:50:02.368Z,6.80
2023-02-12T15:52:35.200Z,5.93
2023-02-12T15:55:06.048Z,8.47
2023-02-12T15:57:34.457Z,8.33
2023-02-12T16:00:07.748Z,10.90
2023-02-12T16:02:40.586Z,9.97
2023-02-12T16:05:08.991Z,9.27
2023-02-12T16:07:38.330Z,11.73
2023-02-12T16:10:08.633Z,11.73
2023-02-12T16:12:38.208Z,11.30
2023-02-12T16:15:06.365Z,10.70
2023-02-12T16:17:36.918Z,12.10
2023-02-12T16:20:08.902Z,13.40
2023-02-12T16:22:39.231Z,14.23
2023-02-12T16:25:19.173Z,15.40
2023-02-12T16:27:57.280Z,15.87
2023-02-12T16:30:29.246Z,15.27
2023-02-12T16:32:57.757Z,17.13
2023-02-12T16:35:29.201Z,19.20
2023-02-12T16:38:01.640Z,16.07
2023-02-12T16:40:34.741Z,16.17
2023-02-12T16:43:23.635Z,15.53
2023-02-12T16:45:51.504Z,14.73
2023-02-12T16:48:25.065Z,16.27
2023-02-12T16:50:57.628Z,13.30
2023-02-12T16:53:42.916Z,12.80
2023-02-12T16:56:18.113Z,12.37
2023-02-12T16:58:48.265Z,12.17
2023-02-12T17:01:22.057Z,11.80
2023-02-12T17:03:51.056Z,11.60
2023-02-12T17:06:20.845Z,11.37
2023-02-12T17:08:48.544Z,9.60
2023-02-12T17:11:18.874Z,10.50
2023-02-12T17:13:47.895Z,9.10
2023-02-12T17:16:29.475Z,8.80
2023-02-12T17:18:58.253Z,8.07
2023-02-12T17:21:29.075Z,9.63
2023-02-12T17:23:56.664Z,7.70
2023-02-12T17:26:26.295Z,7.97
2023-02-12T17:28:53.957Z,7.67
2023-02-12T17:31:21.650Z,8.13
2023-02-12T17:33:49.347Z,7.50
2023-02-12T17:36:16.975Z,8.23
2023-02-12T17:38:45.053Z,6.87
2023-02-12T17:41:12.811Z,8.13
2023-02-12T17:43:41.759Z,8.40
2023-02-12T17:46:11.527Z,8.40
2023-02-12T17:48:40.373Z,9.50
2023-02-12T17:51:09.826Z,8.97
2023-02-12T17:53:37.665Z,8.37
2023-02-12T17:56:06.150Z,8.57
2023-02-12T17:58:33.733Z,9.27
2023-02-12T18:01:06.924Z,8.80
2023-02-12T18:03:35.025Z,9.33
2023-02-12T18:06:02.624Z,10.20
2023-02-12T18:08:30.502Z,10.07
2023-02-12T18:10:58.482Z,10.67
2023-02-12T18:13:26.436Z,10.67
2023-02-12T18:15:54.003Z,11.50
2023-02-12T18:18:22.965Z,13.00
2023-02-12T18:20:50.576Z,11.30
2023-02-12T18:23:18.178Z,11.83
2023-02-12T18:25:45.915Z,11.27
2023-02-12T18:28:13.573Z,11.97
2023-02-12T18:30:43.171Z,13.23
2023-02-12T18:33:12.841Z,11.77
2023-02-12T18:35:42.292Z,12.47
2023-02-12T18:38:10.558Z,12.67
2023-02-12T18:40:40.687Z,12.43
2023-02-12T18:43:08.266Z,13.73
2023-02-12T18:45:35.919Z,12.20
2023-02-12T18:48:05.263Z,16.27
2023-02-12T18:50:32.852Z,16.67
2023-02-12T18:53:01.883Z,14.03
2023-02-12T18:55:29.501Z,14.27
2023-02-12T18:57:57.240Z,12.70
2023-02-12T19:00:25.364Z,13.97
2023-02-12T19:02:52.948Z,13.33
2023-02-12T19:05:20.522Z,14.33
2023-02-12T19:07:48.138Z,14.97
2023-02-12T19:10:17.086Z,14.43
2023-02-12T19:12:44.842Z,14.63
2023-02-12T19:15:12.869Z,16.13
2023-02-12T19:17:40.455Z,18.60
2023-02-12T19:20:09.570Z,17.20
2023-02-12T19:22:38.415Z,19.87
2023-02-12T19:25:06.737Z,16.03
2023-02-12T19:27:37.437Z,15.47
2023-02-12T19:30:06.600Z,17.23
2023-02-12T19:32:34.610Z,15.90
2023-02-12T19:35:02.320Z,16.70
2023-02-12T19:37:31.877Z,15.50
2023-02-12T19:39:59.853Z,17.83
2023-02-12T19:42:27.614Z,15.53
2023-02-12T19:44:56.543Z,15.67
2023-02-12T19:47:24.143Z,14.37
2023-02-12T19:49:51.729Z,13.33
2023-02-12T19:52:19.303Z,11.53
2023-02-12T19:54:47.173Z,9.93
2023-02-12T19:57:15.322Z,9.37
2023-02-12T19:59:42.932Z,8.10
2023-02-12T20:02:12.071Z,8.00
2023-02-12T20:04:39.763Z,6.93
2023-02-12T20:07:08.249Z,6.33
2023-02-12T20:09:36.606Z,6.87
2023-02-12T20:12:04.580Z,6.80
2023-02-12T20:14:32.204Z,6.10
2023-02-12T20:16:59.944Z,6.27
2023-02-12T20:19:30.635Z,6.13
2023-02-12T20:22:01.392Z,5.67
2023-02-12T20:24:30.874Z,5.80
2023-02-12T20:27:00.380Z,5.77
2023-02-12T20:29:28.805Z,6.90
2023-02-12T20:31:56.995Z,6.53
2023-02-12T20:34:24.750Z,6.37
2023-02-12T20:36:53.927Z,6.03
2023-02-12T20:39:22.175Z,5.10
2023-02-12T20:41:50.095Z,5.83
2023-02-12T20:44:20.186Z,5.93
2023-02-12T20:46:50.029Z,6.20
2023-02-12T20:49:20.052Z,6.23
2023-02-12T20:51:50.269Z,6.00
2023-02-12T20:54:19.611Z,6.70
2023-02-12T20:56:49.144Z,6.37
2023-02-12T20:59:16.830Z,6.90
2023-02-12T21:01:44.484Z,7.07
2023-02-12T21:04:14.500Z,6.60
2023-02-12T21:06:42.768Z,6.60
2023-02-12T21:09:13.126Z,6.70
2023-02-12T21:11:45.567Z,6.47
2023-02-12T21:14:23.990Z,6.30
2023-02-12T21:16:53.347Z,6.53
2023-02-12T21:19:21.238Z,6.13
2023-02-12T21:21:48.995Z,7.53
2023-02-12T21:24:18.303Z,9.83
2023-02-12T21:26:47.205Z,8.07
2023-02-12T21:29:15.130Z,8.40
2023-02-12T21:31:45.239Z,8.13
2023-02-12T21:34:18.208Z,8.87
2023-02-12T21:36:47.389Z,9.87
2023-02-12T21:39:18.849Z,12.30
2023-02-12T21:41:47.780Z,11.23
2023-02-12T21:44:17.947Z,11.63
2023-02-12T21:46:46.273Z,12.67
2023-02-12T21:49:17.500Z,12.67
2023-02-12T21:51:46.018Z,13.97
2023-02-12T21:54:16.383Z,14.80
2023-02-12T21:56:45.710Z,15.00
2023-02-12T21:59:16.123Z,14.43
2023-02-12T22:01:46.765Z,15.30
2023-02-12T22:04:14.777Z,12.07
2023-02-12T22:06:45.812Z,12.80
2023-02-12T22:09:16.431Z,14.70
2023-02-12T22:11:44.155Z,13.30
2023-02-12T22:14:15.989Z,13.47
2023-02-12T22:16:44.174Z,11.70
2023-02-12T22:19:11.987Z,13.93
2023-02-12T22:21:41.132Z,11.90
2023-02-12T22:24:12.044Z,13.30
2023-02-12T22:26:39.677Z,14.20
2023-02-12T22:29:08.727Z,11.77
2023-02-12T22:31:40.595Z,13.70
2023-02-12T22:34:11.334Z,15.43
2023-02-12T22:36:40.169Z,16.30
2023-02-12T22:39:07.805Z,16.63
2023-02-12T22:41:35.902Z,18.60
2023-02-12T22:44:05.957Z,18.10
2023-02-12T22:46:36.108Z,16.37
2023-02-12T22:49:05.205Z,18.47
2023-02-12T22:51:34.626Z,14.47
2023-02-12T22:54:02.378Z,12.00
2023-02-12T22:56:30.010Z,12.77
2023-02-12T22:58:59.481Z,10.53
2023-02-12T23:01:28.195Z,12.47
2023-02-12T23:03:56.304Z,13.10
2023-02-12T23:06:27.299Z,11.97
2023-02-12T23:08:57.933Z,10.13
2023-02-12T23:11:26.345Z,10.57
2023-02-12T23:13:53.925Z,9.50
2023-02-12T23:16:21.843Z,7.57
2023-02-12T23:18:49.908Z,8.07
2023-02-12T23:21:18.037Z,7.70
2023-02-12T23:23:47.024Z,8.20
2023-02-12T23:26:14.685Z,7.30
2023-02-12T23:28:42.362Z,6.73
2023-02-12T23:31:10.155Z,6.97
2023-02-12T23:33:38.004Z,7.20
2023-02-12T23:36:06.101Z,7.57
2023-02-12T23:38:33.866Z,6.00
2023-02-12T23:41:02.908Z,6.10
2023-02-12T23:43:32.718Z,4.90
2023-02-12T23:46:00.701Z,5.10
2023-02-12T23:48:28.479Z,5.43
2023-02-12T23:50:56.379Z,5.50
2023-02-12T23:53:24.129Z,6.20
2023-02-12T23:55:52.044Z,5.70
2023-02-12T23:58:21.134Z,5.77
